createdAt,value
2023-03-10T00:00:41.048Z,3.97
2023-03-10T00:03:09.047Z,6.25
2023-03-10T00:05:39.298Z,3.30
2023-03-10T00:08:07.737Z,3.20
2023-03-10T00:10:35.546Z,5.80
2023-03-10T00:13:03.341Z,4.18
2023-03-10T00:15:31.691Z,3.40
2023-03-10T00:17:59.690Z,3.80
2023-03-10T00:20:27.578Z,3.77
2023-03-10T00:22:56.720Z,3.70
2023-03-10T00:25:24.538Z,5.25
2023-03-10T00:27:52.757Z,3.17
2023-03-10T00:30:20.781Z,3.57
2023-03-10T00:32:50.257Z,4.43
2023-03-10T00:35:18.329Z,4.30
2023-03-10T00:37:46.117Z,3.77
2023-03-10T00:40:16.386Z,3.75
2023-03-10T00:42:44.808Z,4.30
2023-03-10T00:45:12.735Z,6.60
2023-03-10T00:47:40.766Z,3.35
2023-03-10T00:50:09.923Z,3.25
2023-03-10T00:52:37.804Z,3.00
2023-03-10T00:55:06.249Z,6.57
2023-03-10T00:57:36.891Z,3.80
2023-03-10T01:00:06.445Z,3.10
2023-03-10T01:02:34.179Z,3.38
2023-03-10T01:05:02.008Z,3.45
2023-03-10T01:07:29.738Z,5.30
2023-03-10T01:09:57.627Z,3.58
2023-03-10T01:12:25.417Z,5.13
2023-03-10T01:14:54.638Z,4.18
2023-03-10T01:17:22.384Z,3.70
2023-03-10T01:19:50.246Z,3.35
2023-03-10T01:22:18.125Z,3.78
2023-03-10T01:24:45.884Z,5.00
2023-03-10T01:27:13.774Z,4.57
2023-03-10T01:29:41.581Z,4.03
2023-03-10T01:32:10.880Z,3.40
2023-03-10T01:34:39.415Z,3.53
2023-03-10T01:37:07.253Z,4.07
2023-03-10T01:39:35.125Z,4.23
2023-03-10T01:42:03.018Z,4.40
2023-03-10T01:44:30.772Z,3.78
2023-03-10T01:46:59.619Z,4.67
2023-03-10T01:49:34.683Z,4.80
2023-03-10T01:52:06.233Z,3.30
2023-03-10T01:54:42.210Z,5.03
2023-03-10T01:57:10.709Z,3.57
2023-03-10T01:59:38.594Z,3.30
2023-03-10T02:02:06.620Z,4.78
2023-03-10T02:04:42.663Z,3.93
2023-03-10T02:07:11.777Z,5.77
2023-03-10T02:09:43.474Z,5.95
2023-03-10T02:12:12.252Z,4.03
2023-03-10T02:14:40.877Z,4.30
2023-03-10T02:17:11.295Z,4.63
2023-03-10T02:20:00.380Z,5.15
2023-03-10T02:22:28.480Z,5.03
2023-03-10T02:25:02.609Z,4.45
2023-03-10T02:27:35.285Z,4.90
2023-03-10T02:30:07.037Z,4.10
2023-03-10T02:32:38.468Z,5.47
2023-03-10T02:35:06.993Z,3.55
2023-03-10T02:37:36.507Z,4.47
2023-03-10T02:40:06.020Z,4.32
2023-03-10T02:42:37.509Z,5.50
2023-03-10T02:45:05.870Z,5.38
2023-03-10T02:47:33.652Z,4.20
2023-03-10T02:50:02.538Z,5.47
2023-03-10T02:52:37.579Z,6.72
2023-03-10T02:55:06.060Z,5.13
2023-03-10T02:57:35.181Z,4.20
2023-03-10T03:00:05.288Z,5.18
2023-03-10T03:02:33.689Z,5.30
2023-03-10T03:05:01.740Z,5.78
2023-03-10T03:07:29.672Z,6.05
2023-03-10T03:09:57.739Z,5.72
2023-03-10T03:12:25.625Z,7.30
2023-03-10T03:14:55.107Z,7.05
2023-03-10T03:17:22.910Z,9.55
2023-03-10T03:19:50.656Z,6.60
2023-03-10T03:22:18.434Z,6.90
2023-03-10T03:24:46.345Z,7.05
2023-03-10T03:27:14.333Z,7.93
2023-03-10T03:29:42.120Z,10.13
2023-03-10T03:32:11.522Z,8.75
2023-03-10T03:34:39.494Z,8.27
2023-03-10T03:37:07.273Z,7.55
2023-03-10T03:39:35.204Z,7.93
2023-03-10T03:42:03.082Z,8.43
2023-03-10T03:44:30.987Z,8.67
2023-03-10T03:46:58.748Z,6.13
2023-03-10T03:49:28.848Z,8.85
2023-03-10T03:51:56.615Z,9.32
2023-03-10T03:54:24.492Z,7.03
2023-03-10T03:56:52.301Z,6.35
2023-03-10T03:59:20.339Z,7.95
2023-03-10T04:01:48.323Z,6.63
2023-03-10T04:04:16.199Z,8.38
2023-03-10T04:06:45.389Z,7.03
2023-03-10T04:09:13.759Z,5.45
2023-03-10T04:11:41.559Z,6.85
2023-03-10T04:14:09.542Z,6.00
2023-03-10T04:16:37.363Z,6.43
2023-03-10T04:19:07.528Z,7.03
2023-03-10T04:21:35.865Z,6.63
2023-03-10T04:24:06.057Z,7.68
2023-03-10T04:26:34.430Z,12.63
2023-03-10T04:29:02.425Z,7.45
2023-03-10T04:31:30.700Z,11.73
2023-03-10T04:33:58.657Z,7.82
2023-03-10T04:36:26.390Z,10.27
2023-03-10T04:38:54.335Z,8.27
2023-03-10T04:41:23.565Z,9.52
2023-03-10T04:43:51.902Z,7.93
2023-03-10T04:46:19.844Z,7.13
2023-03-10T04:48:47.826Z,8.43
2023-03-10T04:51:15.573Z,8.82
2023-03-10T04:53:43.363Z,10.20
2023-03-10T04:56:12.512Z,9.52
2023-03-10T04:58:41.816Z,6.30
2023-03-10T05:01:10.804Z,7.32
2023-03-10T05:03:38.734Z,7.00
2023-03-10T05:06:12.428Z,7.95
2023-03-10T05:08:40.307Z,8.73
2023-03-10T05:11:09.131Z,7.45
2023-03-10T05:13:36.951Z,8.18
2023-03-10T05:16:13.776Z,6.80
2023-03-10T05:18:42.903Z,6.68
2023-03-10T05:21:10.900Z,6.45
2023-03-10T05:23:39.079Z,6.80
2023-03-10T05:26:07.910Z,6.70
2023-03-10T05:28:36.041Z,7.30
2023-03-10T05:31:09.657Z,5.60
2023-03-10T05:33:37.422Z,8.98
2023-03-10T05:36:07.779Z,5.40
2023-03-10T05:38:36.561Z,6.90
2023-03-10T05:41:08.160Z,8.48
2023-03-10T05:43:36.422Z,7.03
2023-03-10T05:46:06.097Z,6.50
2023-03-10T05:48:33.969Z,7.38
2023-03-10T05:51:03.068Z,5.72
2023-03-10T05:53:32.465Z,6.68
2023-03-10T05:56:00.714Z,6.75
2023-03-10T05:58:28.722Z,10.55
2023-03-10T06:00:56.467Z,6.40
2023-03-10T06:03:25.782Z,9.30
2023-03-10T06:05:53.757Z,5.82
2023-03-10T06:08:21.538Z,4.88
2023-03-10T06:10:49.358Z,13.65
2023-03-10T06:13:20.103Z,6.05
2023-03-10T06:15:50.947Z,6.00
2023-03-10T06:18:19.391Z,11.40
2023-03-10T06:20:49.496Z,8.75
2023-03-10T06:23:18.168Z,6.22
2023-03-10T06:25:46.092Z,8.45
2023-03-10T06:28:13.914Z,7.03
2023-03-10T06:30:41.717Z,5.30
2023-03-10T06:33:09.578Z,7.38
2023-03-10T06:35:37.318Z,8.60
2023-03-10T06:38:06.410Z,7.03
2023-03-10T06:40:34.502Z,8.05
2023-03-10T06:43:02.253Z,7.00
2023-03-10T06:45:30.159Z,6.10
2023-03-10T06:47:58.285Z,5.90
2023-03-10T06:50:26.107Z,7.05
2023-03-10T06:52:53.881Z,5.35
2023-03-10T06:55:23.061Z,7.22
2023-03-10T06:57:50.875Z,8.50
2023-03-10T07:00:19.878Z,8.15
2023-03-10T07:02:47.654Z,6.75
2023-03-10T07:05:15.682Z,7.13
2023-03-10T07:07:43.584Z,5.18
2023-03-10T07:10:12.640Z,6.15
2023-03-10T07:12:41.807Z,8.20
2023-03-10T07:15:10.796Z,5.05
2023-03-10T07:17:38.774Z,6.25
2023-03-10T07:20:07.972Z,7.35
2023-03-10T07:22:35.909Z,8.30
2023-03-10T07:25:05.033Z,7.70
2023-03-10T07:27:32.843Z,5.13
2023-03-10T07:30:02.077Z,6.43
2023-03-10T07:32:29.997Z,6.20
2023-03-10T07:34:57.963Z,5.82
2023-03-10T07:37:25.882Z,5.57
2023-03-10T07:39:55.021Z,6.80
2023-03-10T07:42:22.904Z,7.30
2023-03-10T07:44:50.743Z,7.07
2023-03-10T07:47:20.240Z,5.10
2023-03-10T07:49:48.248Z,6.22
2023-03-10T07:52:16.351Z,5.72
2023-03-10T07:54:45.228Z,6.43
2023-03-10T07:57:13.803Z,7.85
2023-03-10T07:59:42.271Z,7.30
2023-03-10T08:02:13.102Z,4.95
2023-03-10T08:04:43.114Z,6.30
2023-03-10T08:07:10.983Z,8.35
2023-03-10T08:09:39.052Z,7.90
2023-03-10T08:12:08.108Z,6.88
2023-03-10T08:14:36.505Z,7.97
2023-03-10T08:17:04.410Z,10.07
2023-03-10T08:19:32.339Z,7.68
2023-03-10T08:22:03.602Z,7.20
2023-03-10T08:24:31.556Z,6.68
2023-03-10T08:26:59.429Z,7.57
2023-03-10T08:29:27.221Z,6.43
2023-03-10T08:31:55.025Z,5.97
2023-03-10T08:34:23.346Z,3.72
2023-03-10T08:36:51.388Z,4.50
2023-03-10T08:39:20.634Z,3.97
2023-03-10T08:41:49.791Z,3.67
2023-03-10T08:44:19.329Z,4.00
2023-03-10T08:46:49.151Z,2.95
2023-03-10T08:49:18.695Z,2.90
2023-03-10T08:51:46.774Z,4.05
2023-03-10T08:54:17.331Z,5.20
2023-03-10T08:56:46.459Z,3.75
2023-03-10T08:59:14.292Z,6.22
2023-03-10T09:01:42.142Z,4.68
2023-03-10T09:04:11.382Z,4.03
2023-03-10T09:06:39.486Z,6.38
2023-03-10T09:09:10.082Z,5.57
2023-03-10T09:11:40.511Z,6.47
2023-03-10T09:14:11.186Z,8.90
2023-03-10T09:16:40.333Z,3.88
2023-03-10T09:19:08.486Z,5.00
2023-03-10T09:21:36.290Z,3.58
2023-03-10T09:24:04.881Z,4.18
2023-03-10T09:26:34.345Z,5.03
2023-03-10T09:29:02.596Z,3.15
2023-03-10T09:31:34.350Z,4.57
2023-03-10T09:34:03.232Z,5.25
2023-03-10T09:36:32.560Z,3.28
2023-03-10T09:39:01.340Z,3.67
2023-03-10T09:42:01.795Z,2.80
2023-03-10T09:44:40.079Z,5.15
2023-03-10T09:47:24.012Z,3.58
2023-03-10T09:50:03.993Z,3.58
2023-03-10T09:52:44.079Z,5.72
2023-03-10T09:55:21.000Z,7.15
2023-03-10T09:57:51.650Z,3.90
2023-03-10T10:00:23.886Z,6.07
2023-03-10T10:03:01.178Z,5.30
2023-03-10T10:05:33.666Z,6.22
2023-03-10T10:08:07.080Z,6.80
2023-03-10T10:10:38.427Z,4.63
2023-03-10T10:13:13.646Z,6.70
2023-03-10T10:15:45.502Z,12.68
2023-03-10T10:18:24.990Z,6.15
2023-03-10T10:20:59.135Z,6.47
2023-03-10T10:23:33.954Z,3.65
2023-03-10T10:26:09.805Z,7.75
2023-03-10T10:28:43.295Z,5.32
2023-03-10T10:31:13.973Z,5.03
2023-03-10T10:33:58.193Z,4.72
2023-03-10T10:36:28.805Z,6.72
2023-03-10T10:38:59.074Z,4.80
2023-03-10T10:41:30.439Z,3.83
2023-03-10T10:44:01.782Z,5.07
2023-03-10T10:46:32.882Z,4.38
2023-03-10T10:49:09.198Z,5.50
2023-03-10T10:51:38.960Z,5.65
2023-03-10T10:54:24.115Z,4.45
2023-03-10T10:56:57.077Z,7.65
2023-03-10T10:59:30.011Z,5.13
2023-03-10T11:01:59.765Z,7.07
2023-03-10T11:04:31.248Z,4.65
2023-03-10T11:07:13.803Z,7.57
2023-03-10T11:09:41.689Z,6.65
2023-03-10T11:12:20.158Z,7.35
2023-03-10T11:15:01.699Z,6.95
2023-03-10T11:17:34.339Z,4.55
2023-03-10T11:20:14.983Z,5.47
2023-03-10T11:22:47.118Z,6.38
2023-03-10T11:25:33.296Z,4.85
2023-03-10T11:28:13.709Z,5.32
2023-03-10T11:30:47.969Z,5.05
2023-03-10T11:33:26.156Z,6.03
2023-03-10T11:36:01.019Z,4.22
2023-03-10T11:38:38.456Z,5.53
2023-03-10T11:41:12.491Z,5.78
2023-03-10T11:43:50.885Z,5.18
2023-03-10T11:46:24.878Z,4.97
2023-03-10T11:49:00.616Z,6.05
2023-03-10T11:51:38.853Z,4.05
2023-03-10T11:54:16.092Z,3.95
2023-03-10T11:56:44.262Z,4.57
2023-03-10T11:59:18.037Z,5.13
2023-03-10T12:01:51.703Z,5.07
2023-03-10T12:04:25.063Z,5.43
2023-03-10T12:07:00.083Z,4.47
2023-03-10T12:09:42.313Z,5.70
2023-03-10T12:12:15.858Z,5.93
2023-03-10T12:14:44.877Z,5.28
2023-03-10T12:17:14.282Z,4.75
2023-03-10T12:20:12.127Z,7.15
2023-03-10T12:22:42.538Z,9.82
2023-03-10T12:25:43.977Z,7.40
2023-03-10T12:28:24.550Z,7.07
2023-03-10T12:30:56.517Z,5.90
2023-03-10T12:33:48.819Z,8.82
2023-03-10T12:36:24.579Z,6.57
2023-03-10T12:38:57.828Z,6.45
2023-03-10T12:41:44.477Z,7.22
2023-03-10T12:44:45.565Z,7.28
2023-03-10T12:47:22.778Z,7.68
2023-03-10T12:49:56.266Z,8.93
2023-03-10T12:52:32.545Z,5.00
2023-03-10T12:55:17.758Z,7.85
2023-03-10T12:57:55.089Z,4.15
2023-03-10T13:00:31.956Z,7.63
2023-03-10T13:03:05.724Z,7.47
2023-03-10T13:05:35.621Z,5.82
2023-03-10T13:08:13.220Z,8.05
2023-03-10T13:10:43.365Z,7.88
2023-03-10T13:13:17.865Z,4.20
2023-03-10T13:15:58.510Z,5.57
2023-03-10T13:18:26.322Z,6.40
2023-03-10T13:20:54.177Z,8.88
2023-03-10T13:23:24.184Z,8.35
2023-03-10T13:25:55.070Z,8.68
2023-03-10T13:28:23.051Z,8.75
2023-03-10T13:30:50.855Z,10.88
2023-03-10T13:33:25.321Z,8.25
2023-03-10T13:35:53.655Z,8.10
2023-03-10T13:38:24.708Z,7.38
2023-03-10T13:41:02.369Z,9.18
2023-03-10T13:43:38.296Z,8.57
2023-03-10T13:46:09.745Z,9.55
2023-03-10T13:48:38.529Z,10.27
2023-03-10T13:51:08.641Z,10.77
2023-03-10T13:53:36.555Z,9.15
2023-03-10T13:56:18.796Z,9.48
2023-03-10T13:58:48.529Z,8.93
2023-03-10T14:01:23.315Z,7.95
2023-03-10T14:03:53.947Z,9.95
2023-03-10T14:06:22.924Z,11.70
2023-03-10T14:08:51.490Z,9.35
2023-03-10T14:11:31.208Z,13.57
2023-03-10T14:14:00.302Z,5.03
2023-03-10T14:16:54.357Z,11.90
2023-03-10T14:19:51.301Z,8.52
2023-03-10T14:22:30.938Z,6.90
2023-03-10T14:25:01.109Z,8.80
2023-03-10T14:27:34.981Z,7.13
2023-03-10T14:30:12.074Z,6.60
2023-03-10T14:32:40.577Z,5.43
2023-03-10T14:35:12.725Z,6.97
2023-03-10T14:37:40.597Z,8.38
2023-03-10T14:40:10.820Z,8.07
2023-03-10T14:42:41.564Z,7.20
2023-03-10T14:45:22.144Z,11.32
2023-03-10T14:47:50.377Z,6.55
2023-03-10T14:50:20.120Z,11.02
2023-03-10T14:52:48.052Z,92.95
2023-03-10T14:55:16.557Z,6.20
2023-03-10T14:57:48.273Z,5.72
2023-03-10T15:00:19.350Z,6.65
2023-03-10T15:02:47.823Z,4.25
2023-03-10T15:05:17.027Z,6.55
2023-03-10T15:07:45.443Z,5.60
2023-03-10T15:10:13.910Z,5.53
2023-03-10T15:12:42.475Z,6.15
2023-03-10T15:15:16.684Z,6.07
2023-03-10T15:17:44.971Z,8.90
2023-03-10T15:20:17.528Z,6.38
2023-03-10T15:22:47.050Z,5.18
2023-03-10T15:25:17.657Z,6.30
2023-03-10T15:27:48.394Z,5.20
2023-03-10T15:30:21.335Z,7.43
2023-03-10T15:32:49.235Z,6.35
2023-03-10T15:35:17.968Z,8.15
2023-03-10T15:37:46.056Z,8.30
2023-03-10T15:40:17.650Z,13.82
2023-03-10T15:42:46.160Z,7.97
2023-03-10T15:45:14.941Z,8.65
2023-03-10T15:47:44.236Z,8.85
2023-03-10T15:50:13.608Z,9.45
2023-03-10T15:52:46.859Z,9.95
2023-03-10T15:55:16.302Z,8.70
2023-03-10T15:57:44.402Z,9.15
2023-03-10T16:00:13.679Z,11.07
2023-03-10T16:02:41.502Z,11.02
2023-03-10T16:05:11.687Z,10.73
2023-03-10T16:07:39.704Z,10.18
2023-03-10T16:10:09.976Z,13.65
2023-03-10T16:12:37.772Z,10.85
2023-03-10T16:15:06.138Z,12.05
2023-03-10T16:17:33.981Z,11.20
2023-03-10T16:20:06.570Z,17.58
2023-03-10T16:22:40.357Z,10.45
2023-03-10T16:25:10.169Z,12.75
2023-03-10T16:27:37.985Z,15.55
2023-03-10T16:30:06.831Z,13.60
2023-03-10T16:32:34.867Z,21.73
2023-03-10T16:35:02.853Z,12.55
2023-03-10T16:37:30.928Z,11.98
2023-03-10T16:40:00.162Z,10.50
2023-03-10T16:42:28.066Z,17.40
2023-03-10T16:44:57.111Z,27.13
2023-03-10T16:47:25.131Z,51.33
2023-03-10T16:49:53.097Z,41.55
2023-03-10T16:52:20.942Z,58.83
2023-03-10T16:54:48.873Z,56.17
2023-03-10T16:57:18.114Z,57.05
2023-03-10T16:59:46.575Z,52.13
2023-03-10T17:02:16.557Z,41.47
2023-03-10T17:04:45.307Z,33.13
2023-03-10T17:07:14.216Z,28.83
2023-03-10T17:09:42.085Z,31.25
2023-03-10T17:12:10.224Z,30.75
2023-03-10T17:14:39.374Z,27.58
2023-03-10T17:17:08.049Z,29.92
2023-03-10T17:19:37.638Z,29.33
2023-03-10T17:22:05.465Z,32.17
2023-03-10T17:24:33.261Z,35.78
2023-03-10T17:27:01.122Z,32.47
2023-03-10T17:29:28.910Z,21.73
2023-03-10T17:31:58.068Z,23.00
2023-03-10T17:34:27.163Z,23.77
2023-03-10T17:36:55.003Z,21.63
2023-03-10T17:39:23.997Z,23.85
2023-03-10T17:41:51.731Z,20.42
2023-03-10T17:44:19.650Z,22.08
2023-03-10T17:46:47.847Z,17.83
2023-03-10T17:49:18.073Z,24.10
2023-03-10T17:51:47.290Z,20.95
2023-03-10T17:54:17.049Z,19.50
2023-03-10T17:56:44.924Z,20.83
2023-03-10T17:59:14.341Z,16.95
2023-03-10T18:01:44.739Z,15.65
2023-03-10T18:04:13.840Z,16.83
2023-03-10T18:06:43.510Z,19.13
2023-03-10T18:09:14.309Z,15.77
2023-03-10T18:11:42.726Z,17.75
2023-03-10T18:14:10.918Z,16.58
2023-03-10T18:16:40.523Z,17.17
2023-03-10T18:19:10.892Z,15.88
2023-03-10T18:21:39.448Z,20.02
2023-03-10T18:24:09.247Z,19.55
2023-03-10T18:26:38.081Z,21.55
2023-03-10T18:29:06.221Z,23.13
2023-03-10T18:31:35.487Z,22.17
2023-03-10T18:34:04.286Z,18.02
2023-03-10T18:36:33.071Z,24.80
2023-03-10T18:39:02.423Z,24.55
2023-03-10T18:41:32.738Z,23.85
2023-03-10T18:44:01.321Z,22.23
2023-03-10T18:46:29.422Z,25.88
2023-03-10T18:48:57.252Z,19.13
2023-03-10T18:51:25.905Z,23.25
2023-03-10T18:53:54.293Z,18.85
2023-03-10T18:56:23.797Z,24.83
2023-03-10T18:58:53.065Z,19.98
2023-03-10T19:01:21.078Z,19.52
2023-03-10T19:03:48.964Z,24.40
2023-03-10T19:06:16.951Z,39.65
2023-03-10T19:08:44.785Z,36.65
2023-03-10T19:11:13.013Z,27.40
2023-03-10T19:13:44.106Z,29.85
2023-03-10T19:16:13.740Z,47.53
2023-03-10T19:18:41.615Z,38.90
2023-03-10T19:21:10.037Z,54.33
2023-03-10T19:23:37.937Z,38.42
2023-03-10T19:26:05.995Z,33.53
2023-03-10T19:28:34.073Z,43.97
2023-03-10T19:31:01.938Z,30.10
2023-03-10T19:33:31.128Z,87.03
2023-03-10T19:36:03.011Z,50.72
2023-03-10T19:38:30.954Z,53.40
2023-03-10T19:40:58.872Z,22.05
2023-03-10T19:43:26.762Z,40.90
2023-03-10T19:46:00.928Z,23.10
2023-03-10T19:48:28.892Z,58.35
2023-03-10T19:50:59.813Z,78.68
2023-03-10T19:53:29.861Z,137.00
2023-03-10T19:56:00.308Z,24.83
2023-03-10T19:58:28.489Z,152.70
2023-03-10T20:00:58.240Z,104.13
2023-03-10T20:03:27.529Z,58.33
2023-03-10T20:05:56.062Z,66.53
2023-03-10T20:08:26.228Z,36.50
2023-03-10T20:10:55.498Z,64.32
2023-03-10T20:13:23.457Z,129.73
2023-03-10T20:15:51.223Z,56.13
2023-03-10T20:18:21.182Z,74.05
2023-03-10T20:20:49.046Z,68.15
2023-03-10T20:23:17.336Z,37.45
2023-03-10T20:25:46.769Z,38.17
2023-03-10T20:28:15.390Z,49.13
2023-03-10T20:30:43.234Z,37.38
2023-03-10T20:33:11.290Z,54.30
2023-03-10T20:35:39.114Z,34.65
2023-03-10T20:38:07.054Z,63.10
2023-03-10T20:40:36.676Z,81.35
2023-03-10T20:43:08.395Z,46.70
2023-03-10T20:45:36.343Z,59.10
2023-03-10T20:48:07.687Z,52.63
2023-03-10T20:50:36.018Z,50.90
2023-03-10T20:53:04.440Z,50.10
2023-03-10T20:55:33.116Z,54.97
2023-03-10T20:58:01.866Z,64.22
2023-03-10T21:00:31.471Z,60.83
2023-03-10T21:03:00.832Z,53.38
2023-03-10T21:05:28.965Z,52.40
2023-03-10T21:07:58.064Z,44.73
2023-03-10T21:10:26.684Z,71.05
2023-03-10T21:12:54.474Z,70.13
2023-03-10T21:15:23.767Z,52.77
2023-03-10T21:17:53.050Z,46.73
2023-03-10T21:20:23.638Z,54.10
2023-03-10T21:22:52.077Z,53.20
2023-03-10T21:25:22.109Z,45.13
2023-03-10T21:27:52.669Z,43.43
2023-03-10T21:30:21.517Z,38.47
2023-03-10T21:32:49.347Z,38.80
2023-03-10T21:35:18.792Z,38.93
2023-03-10T21:37:48.448Z,30.87
2023-03-10T21:40:19.734Z,38.80
2023-03-10T21:42:47.897Z,35.93
2023-03-10T21:45:18.814Z,37.03
2023-03-10T21:47:46.735Z,39.20
2023-03-10T21:50:15.558Z,39.20
2023-03-10T21:52:45.885Z,38.90
2023-03-10T21:55:18.439Z,31.03
2023-03-10T21:57:46.497Z,33.27
2023-03-10T22:00:15.180Z,33.03
2023-03-10T22:02:43.310Z,29.53
2023-03-10T22:05:14.615Z,34.77
2023-03-10T22:07:42.468Z,27.33
2023-03-10T22:10:13.596Z,28.03
2023-03-10T22:12:41.803Z,28.20
2023-03-10T22:15:15.160Z,29.43
2023-03-10T22:17:43.184Z,27.17
2023-03-10T22:20:14.984Z,32.13
2023-03-10T22:22:42.712Z,26.40
2023-03-10T22:25:12.238Z,31.73
2023-03-10T22:27:40.141Z,28.33
2023-03-10T22:30:09.194Z,29.43
2023-03-10T22:32:37.172Z,29.50
2023-03-10T22:35:05.398Z,30.17
2023-03-10T22:37:33.241Z,32.00
2023-03-10T22:40:01.162Z,41.67
2023-03-10T22:42:30.292Z,37.57
2023-03-10T22:44:58.281Z,36.30
2023-03-10T22:47:26.172Z,43.77
2023-03-10T22:49:54.028Z,41.10
2023-03-10T22:52:21.866Z,37.97
2023-03-10T22:54:49.659Z,35.87
2023-03-10T22:57:17.463Z,34.57
2023-03-10T22:59:46.639Z,40.27
2023-03-10T23:02:14.427Z,30.80
2023-03-10T23:04:42.988Z,34.00
2023-03-10T23:07:10.883Z,29.00
2023-03-10T23:09:38.694Z,27.13
2023-03-10T23:12:06.866Z,24.53
2023-03-10T23:14:34.648Z,26.03
2023-03-10T23:17:04.103Z,25.63
2023-03-10T23:19:33.730Z,24.43
2023-03-10T23:22:01.612Z,23.13
2023-03-10T23:24:29.368Z,19.87
2023-03-10T23:26:57.166Z,19.47
2023-03-10T23:29:24.982Z,19.83
2023-03-10T23:31:52.802Z,18.13
2023-03-10T23:34:22.051Z,18.03
2023-03-10T23:36:50.033Z,17.57
2023-03-10T23:39:17.892Z,20.17
2023-03-10T23:41:45.677Z,17.60
2023-03-10T23:44:13.600Z,21.33
2023-03-10T23:46:41.485Z,16.67
2023-03-10T23:49:09.278Z,18.47
2023-03-10T23:51:38.474Z,17.33
2023-03-10T23:54:06.542Z,18.23
2023-03-10T23:56:34.394Z,19.73
2023-03-10T23:59:02.163Z,16.60
